Aviation Digital Data Service (ADDS)

Output produced by METARs form (1429 UTC 10 July 2020)
found at http://www.aviationweather.gov/metar/data/
 
KDLH 101355Z 33009KT 10SM CLR 22/16 A2991 RMK AO2 SLP125 T02170156
KDLH 101130Z 1012/1112 32010KT P6SM SKC